createdAt,value
2022-09-10T00:00:15.673Z,100979.19
2022-09-10T00:02:45.475Z,100975.99
2022-09-10T00:05:15.082Z,100976.99
2022-09-10T00:07:45.067Z,100974.23
2022-09-10T00:10:16.307Z,100973.66
2022-09-10T00:12:47.712Z,100970.49
2022-09-10T00:15:17.821Z,100963.30
2022-09-10T00:17:47.870Z,100967.26
2022-09-10T00:20:17.658Z,100963.59
2022-09-10T00:22:49.081Z,100956.50
2022-09-10T00:25:18.965Z,100956.50
2022-09-10T00:27:48.772Z,100965.56
2022-09-10T00:30:18.770Z,100966.80
2022-09-10T00:32:49.895Z,100960.00
2022-09-10T00:35:22.515Z,100955.92
2022-09-10T00:37:52.250Z,100960.72
2022-09-10T00:40:22.011Z,100952.94
2022-09-10T00:42:51.473Z,100958.69
2022-09-10T00:45:24.376Z,100950.13
2022-09-10T00:47:57.950Z,100950.13
2022-09-10T00:50:33.227Z,100955.09
2022-09-10T00:53:06.007Z,100958.47
2022-09-10T00:55:38.324Z,100955.09
2022-09-10T00:58:12.767Z,100953.75
2022-09-10T01:00:43.067Z,100953.75
2022-09-10T01:03:15.777Z,100952.00
2022-09-10T01:05:48.111Z,100954.63
2022-09-10T01:08:19.650Z,100953.84
2022-09-10T01:10:52.900Z,100952.67
2022-09-10T01:13:28.893Z,100951.72
2022-09-10T01:16:10.228Z,100946.95
2022-09-10T01:18:57.671Z,100946.11
2022-09-10T01:21:30.884Z,100944.86
2022-09-10T01:24:21.557Z,100948.96
2022-09-10T01:27:13.694Z,100950.20
2022-09-10T01:30:04.584Z,100961.14
2022-09-10T01:32:53.626Z,100955.38
2022-09-10T01:35:37.083Z,100957.59
2022-09-10T01:40:49.846Z,100966.49
2022-09-10T01:43:22.843Z,100963.35
2022-09-10T01:45:57.102Z,100962.06
2022-09-10T01:48:32.374Z,100961.27
2022-09-10T01:51:14.970Z,100964.98
2022-09-10T01:54:00.120Z,100962.89
2022-09-10T01:56:44.427Z,100964.33
2022-09-10T01:59:26.168Z,100969.62
2022-09-10T02:02:01.239Z,100963.43
2022-09-10T02:04:32.318Z,100957.47
2022-09-10T02:07:05.842Z,100952.21
2022-09-10T02:09:35.814Z,100958.84
2022-09-10T02:12:12.645Z,100951.84
2022-09-10T02:14:53.957Z,100954.92
2022-09-10T02:17:33.874Z,100954.92
2022-09-10T02:20:05.966Z,100958.51
2022-09-10T02:22:37.745Z,100950.50
2022-09-10T02:25:09.826Z,100948.58
2022-09-10T02:27:42.522Z,100955.09
2022-09-10T02:30:14.659Z,100953.91
2022-09-10T02:32:44.784Z,100949.58
2022-09-10T02:35:15.528Z,100942.28
2022-09-10T02:37:47.324Z,100946.91
2022-09-10T02:40:18.498Z,100945.91
2022-09-10T02:42:48.542Z,100942.82
2022-09-10T02:45:20.083Z,100942.11
2022-09-10T02:47:50.382Z,100952.03
2022-09-10T02:50:20.456Z,100950.07
2022-09-10T02:56:13.995Z,100950.34
2022-09-10T02:58:45.159Z,100945.87
2022-09-10T03:01:19.385Z,100949.70
2022-09-10T03:03:54.891Z,100954.73
2022-09-10T03:06:25.787Z,100928.05
2022-09-10T03:08:55.873Z,100928.05
2022-09-10T03:11:27.329Z,100949.23
2022-09-10T03:13:59.272Z,100955.58
2022-09-10T03:16:29.150Z,100955.86
2022-09-10T03:18:59.275Z,100956.34
2022-09-10T03:21:29.433Z,100955.55
2022-09-10T03:23:59.943Z,100945.36
2022-09-10T03:26:31.538Z,100944.53
2022-09-10T03:29:01.555Z,100943.53
2022-09-10T03:31:32.777Z,100945.58
2022-09-10T03:34:03.307Z,100947.83
2022-09-10T03:36:33.291Z,100949.33
2022-09-10T03:39:03.201Z,100948.75
2022-09-10T03:41:33.197Z,100951.84
2022-09-10T03:44:03.258Z,100942.52
2022-09-10T03:46:33.181Z,100941.02
2022-09-10T03:49:03.880Z,100943.45
2022-09-10T03:51:35.129Z,100938.06
2022-09-10T03:54:06.309Z,100941.45
2022-09-10T03:56:36.110Z,100940.57
2022-09-10T03:59:06.124Z,100939.33
2022-09-10T04:01:36.934Z,100934.90
2022-09-10T04:04:10.348Z,100932.06
2022-09-10T04:06:40.462Z,100932.06
2022-09-10T04:09:11.938Z,100934.90
2022-09-10T04:11:41.565Z,100928.77
2022-09-10T04:14:12.074Z,100927.67
2022-09-10T04:16:43.307Z,100927.88
2022-09-10T04:19:14.972Z,100924.63
2022-09-10T04:21:44.733Z,100926.25
2022-09-10T04:24:14.253Z,100928.63
2022-09-10T04:26:44.486Z,100929.38
2022-09-10T04:29:16.093Z,100930.86
2022-09-10T04:31:46.639Z,100925.88
2022-09-10T04:34:18.115Z,100933.08
2022-09-10T04:36:48.017Z,100935.55
2022-09-10T04:39:18.182Z,100930.01
2022-09-10T04:41:49.631Z,100935.92
2022-09-10T04:44:20.112Z,100927.12
2022-09-10T04:46:50.038Z,100938.23
2022-09-10T04:49:19.825Z,100930.89
2022-09-10T04:51:50.146Z,100939.52
2022-09-10T04:54:20.162Z,100945.03
2022-09-10T04:56:51.609Z,100940.14
2022-09-10T04:59:21.430Z,100940.14
2022-09-10T05:01:51.578Z,100936.77
2022-09-10T05:04:21.180Z,100944.48
2022-09-10T05:06:51.165Z,100943.42
2022-09-10T05:09:22.054Z,100943.08
2022-09-10T05:11:51.805Z,100943.22
2022-09-10T05:14:23.137Z,100943.15
2022-09-10T05:16:53.171Z,100939.94
2022-09-10T05:19:23.177Z,100937.89
2022-09-10T05:21:57.587Z,100941.14
2022-09-10T05:24:27.866Z,100929.58
2022-09-10T05:26:57.690Z,100931.87
2022-09-10T05:29:27.650Z,100934.02
2022-09-10T05:31:57.449Z,100923.95
2022-09-10T05:34:27.790Z,100913.56
2022-09-10T05:36:57.599Z,100914.66
2022-09-10T05:39:27.747Z,100913.31
2022-09-10T05:41:57.760Z,100909.81
2022-09-10T05:44:27.585Z,100910.44
2022-09-10T05:46:57.630Z,100914.86
2022-09-10T05:49:29.763Z,100910.07
2022-09-10T05:51:59.572Z,100915.92
2022-09-10T05:54:29.989Z,100921.70
2022-09-10T05:57:00.091Z,100920.00
2022-09-10T05:59:30.154Z,100923.72
2022-09-10T06:02:00.064Z,100925.63
2022-09-10T06:04:30.799Z,100927.42
2022-09-10T06:07:01.792Z,100933.55
2022-09-10T06:09:31.604Z,100929.00
2022-09-10T06:12:08.374Z,100928.87
2022-09-10T06:14:38.381Z,100931.14
2022-09-10T06:17:08.458Z,100922.50
2022-09-10T06:19:40.155Z,100924.67
2022-09-10T06:22:11.559Z,100927.63
2022-09-10T06:24:43.440Z,100929.97
2022-09-10T06:27:13.250Z,100933.09
2022-09-10T06:29:42.984Z,100933.05
2022-09-10T06:32:13.213Z,100934.44
2022-09-10T06:34:42.939Z,100943.83
2022-09-10T06:37:13.217Z,100942.73
2022-09-10T06:39:43.273Z,100944.98
2022-09-10T06:42:13.576Z,100945.76
2022-09-10T06:44:53.985Z,100941.94
2022-09-10T06:50:00.064Z,100941.63
2022-09-10T06:52:31.052Z,100946.20
2022-09-10T06:55:02.586Z,100945.58
2022-09-10T06:57:34.046Z,100949.91
2022-09-10T07:00:06.665Z,100952.13
2022-09-10T07:02:37.269Z,100954.91
2022-09-10T07:05:08.120Z,100947.85
2022-09-10T07:07:39.135Z,100925.28
2022-09-10T07:10:11.548Z,100925.28
2022-09-10T07:12:41.211Z,100961.33
2022-09-10T07:15:11.894Z,100950.22
2022-09-10T07:17:41.786Z,100956.06
2022-09-10T07:20:14.780Z,100943.52
2022-09-10T07:22:46.494Z,100943.52
2022-09-10T07:25:16.971Z,100963.59
2022-09-10T07:27:57.744Z,100958.84
2022-09-10T07:30:30.866Z,100964.67
2022-09-10T07:33:01.078Z,100965.13
2022-09-10T07:35:33.673Z,100968.40
2022-09-10T07:38:05.051Z,100968.85
2022-09-10T07:40:36.883Z,100968.85
2022-09-10T07:43:08.185Z,100969.06
2022-09-10T07:45:38.450Z,100968.99
2022-09-10T07:48:09.526Z,100974.47
2022-09-10T07:50:40.523Z,100970.72
2022-09-10T07:53:11.136Z,100975.61
2022-09-10T07:55:41.716Z,100963.06
2022-09-10T07:58:11.836Z,100976.77
2022-09-10T08:00:43.284Z,100968.69
2022-09-10T08:03:13.373Z,100954.69
2022-09-10T08:05:46.032Z,100954.69
2022-09-10T08:08:16.121Z,100984.95
2022-09-10T08:10:49.619Z,100984.92
2022-09-10T08:13:20.055Z,100986.42
2022-09-10T08:15:50.344Z,100981.45
2022-09-10T08:18:20.949Z,100988.22
2022-09-10T08:20:55.927Z,100985.30
2022-09-10T08:23:25.736Z,100994.47
2022-09-10T08:25:55.564Z,101000.86
2022-09-10T08:28:27.197Z,101002.28
2022-09-10T08:31:02.791Z,101003.66
2022-09-10T08:33:39.272Z,101011.50
2022-09-10T08:36:14.541Z,101008.38
2022-09-10T08:38:45.819Z,101009.38
2022-09-10T08:41:35.115Z,101013.94
2022-09-10T08:44:13.361Z,101015.19
2022-09-10T08:46:51.524Z,101022.34
2022-09-10T08:49:51.964Z,101024.34
2022-09-10T08:52:43.208Z,101029.50
2022-09-10T08:55:25.442Z,101027.70
2022-09-10T08:58:03.202Z,101024.08
2022-09-10T09:00:39.065Z,101031.31
2022-09-10T09:03:35.577Z,101029.61
2022-09-10T09:06:12.907Z,101028.85
2022-09-10T09:08:49.757Z,101027.26
2022-09-10T09:11:29.522Z,101034.30
2022-09-10T09:14:14.220Z,101025.69
2022-09-10T09:16:55.573Z,101033.86
2022-09-10T09:19:34.450Z,101032.60
2022-09-10T09:22:15.758Z,101030.66
2022-09-10T09:25:01.801Z,101028.00
2022-09-10T09:27:35.581Z,101023.34
2022-09-10T09:30:23.173Z,101023.11
2022-09-10T09:32:54.353Z,101030.19
2022-09-10T09:35:27.142Z,101037.34
2022-09-10T09:38:09.550Z,101028.25
2022-09-10T09:40:47.963Z,101032.02
2022-09-10T09:43:37.256Z,101028.25
2022-09-10T09:46:11.502Z,101027.17
2022-09-10T09:48:42.779Z,101021.39
2022-09-10T09:51:21.444Z,101025.73
2022-09-10T09:54:12.181Z,101023.89
2022-09-10T09:56:30.568Z,101024.86
2022-09-10T09:59:04.315Z,101023.74
2022-09-10T10:01:34.832Z,101030.77
2022-09-10T10:04:09.329Z,101037.01
2022-09-10T10:06:49.750Z,101042.54
2022-09-10T10:09:27.629Z,101040.72
2022-09-10T10:12:03.863Z,101034.41
2022-09-10T10:14:39.801Z,101034.98
2022-09-10T10:17:38.912Z,101037.88
2022-09-10T10:20:16.516Z,101048.37
2022-09-10T10:22:49.328Z,101027.78
2022-09-10T10:25:38.161Z,101027.78
2022-09-10T10:28:12.850Z,101041.25
2022-09-10T10:30:43.147Z,101050.23
2022-09-10T10:33:15.965Z,101056.83
2022-09-10T10:36:06.271Z,101063.66
2022-09-10T10:38:40.180Z,101070.84
2022-09-10T10:41:39.647Z,101081.40
2022-09-10T10:44:24.173Z,101080.14
2022-09-10T10:47:02.078Z,101073.40
2022-09-10T10:49:39.954Z,101073.55
2022-09-10T10:52:25.881Z,101078.02
2022-09-10T10:55:13.297Z,101085.84
2022-09-10T10:58:06.829Z,101097.65
2022-09-10T11:00:40.614Z,101103.09
2022-09-10T11:03:22.392Z,101094.45
2022-09-10T11:05:55.948Z,101090.78
2022-09-10T11:08:42.885Z,101088.72
2022-09-10T11:11:18.306Z,101091.03
2022-09-10T11:13:53.820Z,101089.43
2022-09-10T11:16:46.269Z,101088.82
2022-09-10T11:19:38.183Z,101092.45
2022-09-10T11:22:21.295Z,101092.45
2022-09-10T11:24:54.087Z,101100.00
2022-09-10T11:27:35.877Z,101101.51
2022-09-10T11:30:15.582Z,101107.83
2022-09-10T11:33:03.247Z,101105.36
2022-09-10T11:35:36.053Z,101107.32
2022-09-10T11:38:27.510Z,101103.82
2022-09-10T11:41:00.356Z,101111.98
2022-09-10T11:43:37.110Z,101107.83
2022-09-10T11:46:11.186Z,101112.67
2022-09-10T11:48:49.431Z,101121.37
2022-09-10T11:51:27.984Z,101119.39
2022-09-10T11:53:58.549Z,101117.31
2022-09-10T11:56:36.981Z,101121.55
2022-09-10T11:59:09.786Z,101124.47
2022-09-10T12:01:49.270Z,101120.80
2022-09-10T12:04:43.665Z,101120.55
2022-09-10T12:07:36.133Z,101117.96
2022-09-10T12:10:14.621Z,101130.19
2022-09-10T12:12:47.557Z,101125.36
2022-09-10T12:15:25.351Z,101125.13
2022-09-10T12:17:58.696Z,101129.77
2022-09-10T12:20:37.666Z,101127.47
2022-09-10T12:23:08.196Z,101127.00
2022-09-10T12:25:37.973Z,101125.45
2022-09-10T12:28:13.371Z,101119.72
2022-09-10T12:30:46.267Z,101121.42
2022-09-10T12:33:22.312Z,101121.17
2022-09-10T12:35:53.195Z,101123.20
2022-09-10T12:38:59.324Z,101127.41
2022-09-10T12:41:32.110Z,101126.45
2022-09-10T12:44:02.900Z,101131.30
2022-09-10T12:46:33.722Z,101138.58
2022-09-10T12:49:09.529Z,101148.12
2022-09-10T12:51:53.568Z,101143.65
2022-09-10T12:54:28.750Z,101153.41
2022-09-10T12:57:01.541Z,101149.48
2022-09-10T12:59:43.124Z,101150.74
2022-09-10T13:02:27.949Z,101152.99
2022-09-10T13:05:09.453Z,101162.65
2022-09-10T13:07:41.558Z,101160.34
2022-09-10T13:10:27.111Z,101162.84
2022-09-10T13:13:00.059Z,101166.25
2022-09-10T13:15:33.344Z,101171.41
2022-09-10T13:18:12.112Z,101165.30
2022-09-10T13:20:41.831Z,101168.05
2022-09-10T13:23:15.518Z,101171.06
2022-09-10T13:25:47.579Z,101170.25
2022-09-10T13:28:34.937Z,101170.72
2022-09-10T13:31:11.300Z,101173.34
2022-09-10T13:33:56.007Z,101182.13
2022-09-10T13:36:48.149Z,101182.13
2022-09-10T13:39:26.715Z,101190.88
2022-09-10T13:42:14.304Z,101191.77
2022-09-10T13:45:20.093Z,101188.91
2022-09-10T13:47:55.587Z,101183.22
2022-09-10T13:50:28.708Z,101189.34
2022-09-10T13:53:01.977Z,101188.12
2022-09-10T13:55:34.027Z,101181.77
2022-09-10T13:58:14.007Z,101190.09
2022-09-10T14:00:52.683Z,101204.22
2022-09-10T14:03:28.494Z,101208.20
2022-09-10T14:06:00.245Z,101209.98
2022-09-10T14:08:35.814Z,101211.14
2022-09-10T14:11:14.378Z,101216.30
2022-09-10T14:13:47.153Z,101227.27
2022-09-10T14:16:27.220Z,101233.90
2022-09-10T14:18:59.125Z,101232.00
2022-09-10T14:21:29.594Z,101228.23
2022-09-10T14:24:00.961Z,101235.11
2022-09-10T14:26:33.735Z,101236.34
2022-09-10T14:29:06.620Z,101236.44
2022-09-10T14:31:38.352Z,101233.63
2022-09-10T14:34:34.792Z,101236.06
2022-09-10T14:37:07.850Z,101237.32
2022-09-10T14:39:39.145Z,101243.80
2022-09-10T14:42:29.210Z,101224.95
2022-09-10T14:44:58.952Z,101224.95
2022-09-10T14:47:33.070Z,101246.92
2022-09-10T14:50:27.804Z,101242.85
2022-09-10T14:52:58.160Z,101253.11
2022-09-10T14:55:33.037Z,101257.91
2022-09-10T14:58:02.851Z,101262.32
2022-09-10T15:00:33.906Z,101267.97
2022-09-10T15:03:03.890Z,101263.20
2022-09-10T15:05:33.618Z,101266.14
2022-09-10T15:08:03.564Z,101266.38
2022-09-10T15:10:33.359Z,101273.87
2022-09-10T15:13:03.165Z,101274.03
2022-09-10T15:15:33.026Z,101274.25
2022-09-10T15:18:03.030Z,101270.74
2022-09-10T15:20:32.534Z,101266.03
2022-09-10T15:23:02.260Z,101269.59
2022-09-10T15:25:38.411Z,101273.36
2022-09-10T15:28:08.233Z,101277.56
2022-09-10T15:30:38.272Z,101281.77
2022-09-10T15:33:09.403Z,101286.70
2022-09-10T15:35:40.214Z,101287.42
2022-09-10T15:38:15.838Z,101283.28
2022-09-10T15:40:47.260Z,101296.89
2022-09-10T15:43:22.545Z,101308.48
2022-09-10T15:45:52.287Z,101312.81
2022-09-10T15:48:22.018Z,101307.40
2022-09-10T15:50:51.729Z,101313.22
2022-09-10T15:53:21.765Z,101318.34
2022-09-10T15:55:51.490Z,101320.29
2022-09-10T15:58:21.141Z,101316.05
2022-09-10T16:00:51.161Z,101320.55
2022-09-10T16:03:21.377Z,101314.84
2022-09-10T16:05:51.091Z,101315.22
2022-09-10T16:08:20.834Z,101317.89
2022-09-10T16:10:52.492Z,101326.16
2022-09-10T16:13:22.298Z,101324.31
2022-09-10T16:16:03.576Z,101304.41
2022-09-10T16:18:34.193Z,101304.41
2022-09-10T16:21:11.977Z,101327.21
2022-09-10T16:23:43.915Z,101332.48
2022-09-10T16:26:16.724Z,101333.33
2022-09-10T16:28:57.227Z,101328.05
2022-09-10T16:31:30.207Z,101336.27
2022-09-10T16:34:03.558Z,101344.08
2022-09-10T16:36:36.790Z,101349.97
2022-09-10T16:39:10.691Z,101356.77
2022-09-10T16:41:45.845Z,101361.86
2022-09-10T16:44:17.520Z,101363.06
2022-09-10T16:46:48.118Z,101362.42
2022-09-10T16:49:19.580Z,101369.66
2022-09-10T16:51:49.488Z,101374.80
2022-09-10T16:54:20.810Z,101378.41
2022-09-10T16:56:50.985Z,101372.44
2022-09-10T16:59:23.996Z,101373.44
2022-09-10T17:01:54.835Z,101381.07
2022-09-10T17:04:29.018Z,101389.85
2022-09-10T17:06:58.923Z,101390.70
2022-09-10T17:09:28.707Z,101382.31
2022-09-10T17:11:58.475Z,101386.16
2022-09-10T17:14:27.918Z,101392.99
2022-09-10T17:16:58.533Z,101395.78
2022-09-10T17:19:29.262Z,101402.03
2022-09-10T17:21:58.740Z,101407.78
2022-09-10T17:24:28.557Z,101406.37
2022-09-10T17:26:58.283Z,101404.89
2022-09-10T17:29:28.091Z,101405.36
2022-09-10T17:31:58.497Z,101406.11
2022-09-10T17:34:28.509Z,101403.09
2022-09-10T17:36:58.246Z,101402.25
2022-09-10T17:39:29.246Z,101402.98
2022-09-10T17:41:59.069Z,101413.52
2022-09-10T17:44:28.848Z,101403.59
2022-09-10T17:46:58.598Z,101413.41
2022-09-10T17:49:28.506Z,101413.83
2022-09-10T17:52:00.166Z,101409.66
2022-09-10T17:54:30.189Z,101415.42
2022-09-10T17:56:59.956Z,101414.64
2022-09-10T17:59:30.029Z,101424.04
2022-09-10T18:01:59.644Z,101417.97
2022-09-10T18:04:30.652Z,101428.49
2022-09-10T18:07:01.025Z,101431.52
2022-09-10T18:09:30.832Z,101435.64
2022-09-10T18:12:02.113Z,101443.16
2022-09-10T18:14:32.104Z,101452.54
2022-09-10T18:17:03.139Z,101452.54
2022-09-10T18:19:33.222Z,101466.88
2022-09-10T18:22:02.939Z,101472.89
2022-09-10T18:24:32.749Z,101484.72
2022-09-10T18:27:04.125Z,101486.64
2022-09-10T18:29:34.992Z,101486.32
2022-09-10T18:32:07.846Z,101492.09
2022-09-10T18:34:39.243Z,101491.95
2022-09-10T18:37:09.085Z,101498.53
2022-09-10T18:39:38.928Z,101498.14
2022-09-10T18:42:11.197Z,101502.14
2022-09-10T18:44:40.987Z,101513.25
2022-09-10T18:47:28.013Z,101513.25
2022-09-10T18:49:43.930Z,101514.98
2022-09-10T18:52:13.664Z,101520.05
2022-09-10T18:54:46.645Z,101524.16
2022-09-10T18:57:15.749Z,101531.20
2022-09-10T18:59:45.526Z,101538.02
2022-09-10T19:02:17.121Z,101535.47
2022-09-10T19:05:09.765Z,101534.53
2022-09-10T19:07:18.853Z,101537.94
2022-09-10T19:09:48.601Z,101545.72
2022-09-10T19:12:19.298Z,101546.55
2022-09-10T19:14:49.135Z,101550.20
2022-09-10T19:17:18.935Z,101557.48
2022-09-10T19:19:50.054Z,101558.47
2022-09-10T19:22:19.583Z,101557.01
2022-09-10T19:24:54.850Z,101563.80
2022-09-10T19:27:21.783Z,101570.53
2022-09-10T19:29:51.747Z,101570.66
2022-09-10T19:32:21.279Z,101571.42
2022-09-10T19:34:52.059Z,101573.59
2022-09-10T19:37:21.788Z,101581.04
2022-09-10T19:39:51.649Z,101578.80
2022-09-10T19:42:21.172Z,101588.30
2022-09-10T19:44:50.918Z,101590.71
2022-09-10T19:47:20.830Z,101591.74
2022-09-10T19:49:51.346Z,101591.74
2022-09-10T19:52:21.466Z,101603.69
2022-09-10T19:54:51.515Z,101598.09
2022-09-10T19:57:21.543Z,101607.07
2022-09-10T19:59:52.177Z,101613.38
2022-09-10T20:02:21.729Z,101606.28
2022-09-10T20:04:51.611Z,101597.84
2022-09-10T20:07:21.665Z,101597.84
2022-09-10T20:09:51.855Z,101610.67
2022-09-10T20:12:22.465Z,101607.71
2022-09-10T20:14:52.207Z,101610.72
2022-09-10T20:17:22.020Z,101620.49
2022-09-10T20:19:51.842Z,101616.15
2022-09-10T20:22:21.488Z,101618.03
2022-09-10T20:24:51.899Z,101612.77
2022-09-10T20:27:21.351Z,101617.75
2022-09-10T20:29:51.120Z,101617.27
2022-09-10T20:32:20.851Z,101614.31
2022-09-10T20:34:50.666Z,101613.80
2022-09-10T20:37:20.721Z,101618.72
2022-09-10T20:39:51.084Z,101618.48
2022-09-10T20:42:20.934Z,101627.16
2022-09-10T20:44:50.673Z,101633.17
2022-09-10T20:47:20.127Z,101631.75
2022-09-10T20:49:49.861Z,101637.55
2022-09-10T20:52:19.605Z,101632.77
2022-09-10T20:54:50.129Z,101632.77
2022-09-10T20:57:21.141Z,101648.83
2022-09-10T20:59:50.887Z,101653.50
2022-09-10T21:02:20.768Z,101651.33
2022-09-10T21:04:50.648Z,101638.04
2022-09-10T21:07:20.696Z,101638.04
2022-09-10T21:09:50.443Z,101652.69
2022-09-10T21:12:20.255Z,101658.98
2022-09-10T21:14:50.164Z,101642.64
2022-09-10T21:17:19.897Z,101642.64
2022-09-10T21:19:49.715Z,101658.11
2022-09-10T21:22:20.131Z,101660.64
2022-09-10T21:24:49.872Z,101668.52
2022-09-10T21:27:19.663Z,101667.67
2022-09-10T21:29:49.407Z,101668.98
2022-09-10T21:32:19.450Z,101668.98
2022-09-10T21:34:49.506Z,101679.65
2022-09-10T21:37:19.250Z,101675.75
2022-09-10T21:39:49.173Z,101673.42
2022-09-10T21:42:18.943Z,101681.08
2022-09-10T21:44:48.685Z,101686.12
2022-09-10T21:47:18.750Z,101686.12
2022-09-10T21:49:48.799Z,101684.62
2022-09-10T21:52:18.578Z,101688.52
2022-09-10T21:54:48.122Z,101694.94
2022-09-10T21:57:17.869Z,101700.91
2022-09-10T21:59:48.390Z,101707.25
2022-09-10T22:02:18.028Z,101709.70
2022-09-10T22:04:47.747Z,101706.95
2022-09-10T22:07:17.559Z,101706.95
2022-09-10T22:09:47.314Z,101705.55
2022-09-10T22:12:16.766Z,101715.34
2022-09-10T22:14:46.669Z,101717.23
2022-09-10T22:17:17.693Z,101709.73
2022-09-10T22:19:47.241Z,101716.37
2022-09-10T22:22:16.998Z,101715.06
2022-09-10T22:24:46.726Z,101714.94
2022-09-10T22:27:16.726Z,101716.16
2022-09-10T22:29:46.181Z,101721.31
2022-09-10T22:32:15.910Z,101718.97
2022-09-10T22:34:46.850Z,101721.62
2022-09-10T22:37:16.339Z,101720.63
2022-09-10T22:39:46.452Z,101719.94
2022-09-10T22:42:16.220Z,101718.09
2022-09-10T22:44:45.970Z,101720.78
2022-09-10T22:47:15.744Z,101720.86
2022-09-10T22:49:47.463Z,101725.64
2022-09-10T22:52:17.222Z,101725.84
2022-09-10T22:54:46.963Z,101732.30
2022-09-10T22:57:17.283Z,101725.27
2022-09-10T22:59:47.289Z,101726.52
2022-09-10T23:02:16.759Z,101722.81
2022-09-10T23:04:46.219Z,101720.41
2022-09-10T23:07:16.447Z,101729.16
2022-09-10T23:09:46.763Z,101745.20
2022-09-10T23:12:16.219Z,101745.20
2022-09-10T23:14:45.963Z,101743.34
2022-09-10T23:17:18.500Z,101740.84
2022-09-10T23:19:47.632Z,101751.55
2022-09-10T23:22:17.538Z,101752.78
2022-09-10T23:24:47.275Z,101750.17
2022-09-10T23:27:17.016Z,101755.15
2022-09-10T23:29:48.592Z,101758.85
2022-09-10T23:32:18.319Z,101753.37
2022-09-10T23:34:48.145Z,101749.50
2022-09-10T23:37:17.768Z,101748.63
2022-09-10T23:39:47.549Z,101756.38
2022-09-10T23:42:17.444Z,101760.43
2022-09-10T23:44:47.190Z,101759.59
2022-09-10T23:47:17.224Z,101760.62
2022-09-10T23:49:47.863Z,101774.39
2022-09-10T23:52:17.605Z,101778.72
2022-09-10T23:54:47.360Z,101779.45
2022-09-10T23:57:17.529Z,101784.58
2022-09-10T23:59:47.292Z,101784.58
